This is the latest recevied weather packets stored in our database for station/object FW4141. If no packets are shown the sender has not sent any weather packets the latest 10 day(s).
| Time | Temp. | Humidity | Pressure | Rain* | Wind** | Luminosity | Snow |
|---|---|---|---|---|---|---|---|
| 1778394646 | 15° C | 58% | 1009.4 hPa | 0 mm | - | - | - |
| 1778392231 | 14.44° C | 62% | 1009.2 hPa | 0 mm | - | - | - |
| 1778388694 | 11.67° C | 91% | 1009.6 hPa | 0 mm | - | - | - |
| 1778384443 | 3.33° C | 92% | 1010.1 hPa | 0 mm | - | - | - |
| 1778383841 | 3.33° C | 92% | 1010.1 hPa | 0 mm | - | - | - |
| 1778383235 | 3.33° C | 92% | 1010.2 hPa | 0 mm | - | - | - |
| 1778373641 | 3.89° C | 90% | 1011.3 hPa | 0 mm | - | - | - |
| 1778368271 | 5° C | 87% | 1012.1 hPa | 0 mm | - | - | - |
| 1778367666 | 5° C | 87% | 1012.1 hPa | 0 mm | - | - | - |
| 1778365876 | 5.56° C | 86% | 1012.2 hPa | 0 mm | - | - | - |
| 1778364657 | 5.56° C | 85% | 1012.3 hPa | 0 mm | - | - | - |
| 1778361064 | 7.22° C | 82% | 1012.5 hPa | 0 mm | - | - | - |
| 1778358095 | 8.89° C | 74% | 1012.6 hPa | 0 mm | - | - | - |
| 1778353863 | 11.11° C | 66% | 1012.5 hPa | 0 mm | - | - | - |
| 1778353269 | 11.67° C | 65% | 1012.6 hPa | 0 mm | - | - | - |
| 1778341227 | 17.22° C | 44% | 1012.6 hPa | 0 mm | - | - | - |
| 1778337671 | 16.67° C | 45% | 1012.8 hPa | 0 mm | - | - | - |
| 1778335855 | 18.33° C | 40% | 1012.7 hPa | 0 mm | - | - | - |
| 1778333442 | 17.22° C | 45% | 1012.9 hPa | 0 mm | - | - | - |
| 1778327484 | 17.78° C | 41% | 1013.3 hPa | 0 mm | - | - | - |
| 1778317876 | 16.11° C | 51% | 1013.3 hPa | 0 mm | - | - | - |
| 1778317289 | 15.56° C | 54% | 1013.4 hPa | 0 mm | - | - | - |
| 1778313639 | 15° C | 54% | 1013.2 hPa | 0 mm | - | - | - |
| 1778312477 | 15° C | 55% | 1013.2 hPa | 0 mm | - | - | - |
| 1778305862 | 10° C | 80% | 1012.9 hPa | 0 mm | - | - | - |
* Rain latest hour (hover to see other rain measurements)
** Current wind speed in m/s (hover to see current wind gust speed)